Time;durP1;ratioP1;P1;durP2;ratioP2;P2;SDS_P1;SDS_P2;PMS_P1;PMS_P2;Temp;Humidity;BMP_temperature;BMP_pressure;BME280_temperature;BME280_humidity;BME280_pressure;Samples;Min_cycle;Max_cycle;Signal;HPM_P1;HPM_P2
2021/12/16 00:08:43;;;;;;;24.60;12.30;;;;;;;12.61;57.00;99407.88;4522213;31;20105;-75
2021/12/16 00:35:48;;;;;;;25.60;12.15;;;;;;;12.92;55.99;99419.03;4533933;31;20143;-75
2021/12/16 00:38:16;;;;;;;30.02;13.13;;;;;;;13.10;54.94;99419.38;4534135;31;20087;-75
2021/12/16 00:40:44;;;;;;;24.67;11.88;;;;;;;13.85;52.34;99435.94;4519623;31;20146;-75
2021/12/16 00:43:19;;;;;;;26.33;12.40;;;;;;;12.93;55.52;99432.81;4533673;31;20087;-75
2021/12/16 00:48:26;;;;;;;26.20;11.55;;;;;;;12.84;56.51;99448.62;4520666;31;20137;-75
2021/12/16 00:56:24;;;;;;;28.52;12.20;;;;;;;11.29;60.96;99438.94;4488123;31;20516;-76
2021/12/16 00:58:56;;;;;;;25.08;12.27;;;;;;;11.84;59.37;99432.44;4535635;31;20088;-75
2021/12/16 01:01:43;;;;;;;27.67;12.68;;;;;;;12.34;57.60;99433.69;4535942;31;20101;-75
2021/12/16 01:04:45;;;;;;;28.48;12.57;;;;;;;12.62;55.98;99433.72;4510302;31;20147;-75
2021/12/16 01:07:25;;;;;;;26.17;11.75;;;;;;;12.97;54.91;99424.94;4523950;31;20125;-75
2021/12/16 01:35:04;;;;;;;25.77;11.00;;;;;;;12.52;56.13;99423.69;4501674;31;20513;-75
2021/12/16 01:51:26;;;;;;;24.40;11.07;;;;;;;11.83;57.58;99410.06;4535751;31;20110;-75
2021/12/16 01:56:50;;;;;;;24.17;11.57;;;;;;;11.72;58.77;99405.13;4521468;31;20174;-75
2021/12/16 01:59:20;;;;;;;29.00;12.18;;;;;;;12.13;57.56;99395.47;4522575;31;20146;-75
2021/12/16 02:01:48;;;;;;;31.30;13.25;;;;;;;11.58;59.27;99389.97;4535331;31;20155;-75
2021/12/16 02:04:24;;;;;;;31.67;13.02;;;;;;;11.44;60.09;99383.44;4535584;31;20122;-75
2021/12/16 02:09:30;;;;;;;25.65;11.20;;;;;;;11.54;59.53;99390.09;4521074;31;20463;-75
2021/12/16 02:12:21;;;;;;;28.02;11.60;;;;;;;11.13;61.06;99378.19;4535638;31;20095;-75
2021/12/16 02:31:46;;;;;;;17.70;8.00;;;;;;;10.90;61.70;99373.56;4535486;31;20095;-75
2021/12/16 02:34:29;;;;;;;18.83;8.07;;;;;;;10.65;62.65;99375.84;4535577;31;20147;-75
2021/12/16 02:36:56;;;;;;;19.00;8.23;;;;;;;11.77;58.22;99379.16;4535331;31;20135;-75
2021/12/16 02:39:28;;;;;;;20.15;8.90;;;;;;;11.50;58.93;99376.41;4535316;31;20500;-75
2021/12/16 02:42:05;;;;;;;16.77;7.85;;;;;;;11.02;60.30;99368.94;4535008;31;20561;-76
2021/12/16 02:48:27;;;;;;;17.23;7.90;;;;;;;11.32;59.13;99369.09;4535512;31;20109;-75
2021/12/16 02:50:09;;;;;;;19.98;8.45;;;;;;;10.49;62.48;99379.62;4535148;31;20155;-76
2021/12/16 02:52:36;;;;;;;17.75;7.47;;;;;;;11.12;60.80;99368.72;4535358;31;20091;-75
2021/12/16 02:55:04;;;;;;;17.83;8.25;;;;;;;10.97;60.80;99367.38;4535352;31;20095;-75
2021/12/16 02:57:36;;;;;;;18.62;7.35;;;;;;;10.95;60.17;99364.84;4534911;31;20149;-75
2021/12/16 03:00:10;;;;;;;19.00;8.23;;;;;;;10.79;61.32;99365.19;4535293;31;20127;-75
2021/12/16 03:02:37;;;;;;;17.73;7.78;;;;;;;10.39;62.75;99359.16;4535378;31;20114;-75
2021/12/16 03:05:05;;;;;;;19.42;9.18;;;;;;;10.15;63.77;99357.06;4534964;31;20100;-75
2021/12/16 03:07:32;;;;;;;20.90;7.78;;;;;;;9.69;65.29;99357.12;4535249;31;20221;-75
2021/12/16 03:12:56;;;;;;;16.42;7.32;;;;;;;10.14;63.37;99351.06;4535357;31;20094;-75
2021/12/16 03:21:28;;;;;;;17.62;7.93;;;;;;;10.43;63.19;99359.97;4520934;31;20198;-75
2021/12/16 03:39:45;;;;;;;19.42;7.55;;;;;;;10.77;61.02;99344.59;4534690;31;20189;-75
2021/12/16 03:42:16;;;;;;;17.48;7.87;;;;;;;11.12;60.07;99348.06;4534821;31;20101;-75
2021/12/16 03:45:04;;;;;;;20.10;7.78;;;;;;;11.76;57.85;99352.44;4535092;31;20199;-75
2021/12/16 03:47:38;;;;;;;20.23;8.52;;;;;;;11.72;57.85;99348.25;4535006;31;20105;-75
2021/12/16 03:50:09;;;;;;;17.80;7.43;;;;;;;12.33;55.89;99364.66;4534730;31;20140;-75
2021/12/16 03:52:37;;;;;;;18.27;7.82;;;;;;;12.19;55.38;99361.63;4534567;31;20433;-75
2021/12/16 03:55:04;;;;;;;18.08;7.20;;;;;;;11.86;56.81;99355.66;4534865;31;20147;-75
2021/12/16 03:57:32;;;;;;;16.25;7.50;;;;;;;11.85;56.64;99348.78;4534862;31;20143;-75
2021/12/16 03:59:59;;;;;;;18.52;7.62;;;;;;;11.92;56.92;99354.66;4534244;31;20150;-75
2021/12/16 04:02:30;;;;;;;15.90;7.28;;;;;;;11.73;57.14;99359.44;4534638;31;20101;-75
2021/12/16 04:04:58;;;;;;;18.45;8.07;;;;;;;10.91;60.69;99352.00;4534836;31;20106;-75
2021/12/16 04:07:30;;;;;;;16.35;6.95;;;;;;;11.61;58.19;99367.53;4520362;31;20108;-75
2021/12/16 04:09:58;;;;;;;16.27;7.45;;;;;;;12.40;55.52;99352.41;4534590;31;20404;-75
2021/12/16 04:12:27;;;;;;;16.40;7.70;;;;;;;12.70;53.69;99356.69;4534528;31;20126;-75
2021/12/16 04:14:57;;;;;;;16.62;7.75;;;;;;;12.71;53.94;99353.19;4534158;31;20146;-75
2021/12/16 04:17:28;;;;;;;17.55;7.18;;;;;;;12.18;55.37;99356.50;4519930;31;20112;-75
2021/12/16 04:20:12;;;;;;;;;;;;;;;11.88;56.32;99343.53;4534426;31;20430;-75
2021/12/16 04:22:43;;;;;;;17.92;7.87;;;;;;;11.83;57.04;99346.25;4534462;31;19982;-75
2021/12/16 04:25:14;;;;;;;18.67;7.65;;;;;;;11.27;58.46;99345.09;4534469;31;20159;-75
2021/12/16 04:27:42;;;;;;;16.92;7.00;;;;;;;11.28;58.13;99341.66;4519795;31;20137;-75
2021/12/16 04:30:11;;;;;;;15.73;7.03;;;;;;;11.36;58.50;99344.03;4534282;31;20149;-75
2021/12/16 04:32:38;;;;;;;16.35;6.43;;;;;;;11.29;59.03;99341.59;4535777;31;20143;-75
2021/12/16 04:35:07;;;;;;;16.25;7.28;;;;;;;9.41;65.65;99343.88;4536060;31;20441;-75
2021/12/16 04:37:34;;;;;;;15.13;6.30;;;;;;;10.84;61.08;99340.13;4536365;31;20441;-75
2021/12/16 04:40:04;;;;;;;16.02;5.95;;;;;;;10.92;60.47;99326.16;4521765;31;20587;-75
2021/12/16 04:42:31;;;;;;;15.55;6.85;;;;;;;10.87;60.79;99319.41;4535892;31;20098;-75
2021/12/16 04:44:58;;;;;;;16.48;6.50;;;;;;;10.77;61.17;99329.09;4536258;31;20492;-75
2021/12/16 04:47:25;;;;;;;17.27;6.75;;;;;;;10.09;62.81;99329.66;4536247;31;20135;-75
2021/12/16 04:49:52;;;;;;;15.88;6.57;;;;;;;10.00;63.84;99336.75;4521494;31;20158;-75
2021/12/16 04:52:20;;;;;;;16.15;6.53;;;;;;;10.36;62.44;99330.87;4536328;31;20195;-75
2021/12/16 04:54:47;;;;;;;13.93;6.37;;;;;;;10.53;61.87;99338.25;4536100;31;20131;-75
2021/12/16 04:57:15;;;;;;;15.80;6.85;;;;;;;10.79;60.65;99340.22;4535757;31;20135;-75
2021/12/16 04:59:42;;;;;;;14.68;5.78;;;;;;;10.56;62.05;99339.91;4521590;31;20158;-75
2021/12/16 05:02:17;;;;;;;13.45;6.10;;;;;;;9.57;65.40;99337.56;4535747;31;20632;-75
2021/12/16 05:04:44;;;;;;;18.73;6.90;;;;;;;10.43;62.06;99340.19;4536088;31;20099;-75
2021/12/16 05:07:12;;;;;;;15.50;6.18;;;;;;;10.52;62.16;99338.25;4536039;31;20148;-75
2021/12/16 05:12:21;;;;;;;14.52;6.20;;;;;;;9.99;64.00;99340.19;4517166;31;140151;-75
2021/12/16 05:14:49;;;;;;;16.15;6.50;;;;;;;10.62;61.81;99348.34;4536057;31;20087;-75
2021/12/16 05:17:31;;;;;;;16.70;6.78;;;;;;;10.67;61.07;99346.53;4535408;31;20171;-75
2021/12/16 05:20:04;;;;;;;15.85;6.90;;;;;;;10.87;60.72;99340.06;4535963;31;20146;-75
2021/12/16 05:25:32;;;;;;;17.05;7.37;;;;;;;9.97;63.98;99360.84;4535569;31;20126;-75
2021/12/16 05:27:59;;;;;;;15.32;6.40;;;;;;;10.67;61.33;99354.28;4523366;31;20126;-75
2021/12/16 05:30:27;;;;;;;17.15;6.65;;;;;;;10.83;60.79;99352.19;4521223;31;20146;-75
2021/12/16 05:32:54;;;;;;;17.92;7.30;;;;;;;10.68;61.64;99357.69;4535816;31;20080;-75
2021/12/16 05:35:22;;;;;;;18.00;6.87;;;;;;;10.54;61.78;99350.28;4535810;31;20343;-75
2021/12/16 05:37:49;;;;;;;17.40;7.12;;;;;;;9.50;65.04;99357.44;4535389;31;20116;-75
2021/12/16 05:40:23;;;;;;;18.45;7.40;;;;;;;10.31;62.19;99357.62;4535768;31;20090;-75
2021/12/16 05:43:03;;;;;;;16.40;6.97;;;;;;;10.44;62.34;99356.50;4520795;31;20161;-74
2021/12/16 05:45:30;;;;;;;17.33;7.47;;;;;;;10.76;61.33;99357.53;4535468;31;20406;-75
2021/12/16 05:47:59;;;;;;;18.65;6.97;;;;;;;10.01;63.44;99359.94;4535658;31;20126;-75
2021/12/16 05:50:29;;;;;;;16.40;7.55;;;;;;;9.49;65.72;99354.91;4535736;31;20437;-75
2021/12/16 05:52:56;;;;;;;18.08;7.20;;;;;;;9.66;65.32;99359.72;4535271;31;20494;-74
2021/12/16 05:55:24;;;;;;;19.80;8.77;;;;;;;9.98;64.19;99353.97;4535629;31;20140;-75
2021/12/16 05:57:51;;;;;;;19.65;7.85;;;;;;;10.46;62.68;99353.91;4535526;31;20121;-75
2021/12/16 06:00:26;;;;;;;16.92;7.57;;;;;;;9.94;64.59;99352.34;4535276;31;20083;-75
2021/12/16 06:02:53;;;;;;;17.52;7.95;;;;;;;9.58;65.45;99349.59;4535555;31;20132;-75
2021/12/16 06:05:20;;;;;;;20.35;8.27;;;;;;;10.19;63.71;99344.94;4535295;31;20084;-75
2021/12/16 06:07:52;;;;;;;19.42;8.15;;;;;;;10.03;63.67;99344.44;4535499;31;20096;-75
2021/12/16 06:10:55;;;;;;;17.33;7.45;;;;;;;9.61;65.52;99351.25;4535578;31;20147;-74
2021/12/16 06:13:06;;;;;;;15.98;7.05;;;;;;;10.07;64.25;99356.38;4522790;31;20079;-74
2021/12/16 06:26:36;;;;;;;17.73;7.15;;;;;;;9.22;68.26;99359.63;4535158;31;20104;-76
2021/12/16 06:29:04;;;;;;;16.25;6.55;;;;;;;9.00;69.19;99342.81;4535489;31;20577;-76
2021/12/16 06:31:31;;;;;;;18.20;7.18;;;;;;;9.13;68.56;99356.34;4535526;31;20121;-76
2021/12/16 06:33:58;;;;;;;16.70;6.90;;;;;;;8.85;69.03;99346.50;4535185;31;20095;-76
2021/12/16 06:36:25;;;;;;;18.90;7.82;;;;;;;8.14;73.06;99348.28;4535368;31;20104;-76
2021/12/16 06:38:52;;;;;;;17.55;7.47;;;;;;;8.55;71.10;99350.34;4535300;31;20127;-76
2021/12/16 06:41:21;;;;;;;18.00;7.53;;;;;;;8.75;70.76;99354.38;4535039;31;20090;-76
2021/12/16 06:43:52;;;;;;;17.65;7.28;;;;;;;8.79;70.58;99356.00;4520895;31;20154;-76
2021/12/16 06:46:21;;;;;;;18.35;7.78;;;;;;;8.52;71.65;99354.69;4535454;31;20139;-76
2021/12/16 06:48:56;;;;;;;17.27;6.62;;;;;;;8.28;72.69;99356.66;4520738;31;20425;-76
2021/12/16 06:51:35;;;;;;;17.10;6.55;;;;;;;8.07;74.07;99356.94;4535196;31;20797;-76
2021/12/16 06:54:12;;;;;;;19.58;7.75;;;;;;;8.46;71.74;99347.06;4534930;31;20071;-76
2021/12/16 06:56:51;;;;;;;19.95;7.55;;;;;;;7.94;74.55;99355.38;4520194;31;20155;-77
2021/12/16 06:59:30;;;;;;;17.80;7.20;;;;;;;8.00;73.87;99356.16;4534974;31;20113;-76
2021/12/16 07:02:10;;;;;;;17.00;7.03;;;;;;;8.39;72.72;99359.97;4521641;31;20419;-76
2021/12/16 07:04:37;;;;;;;15.65;6.72;;;;;;;7.95;75.14;99368.19;4534996;31;20119;-76
2021/12/16 07:07:07;;;;;;;16.67;6.78;;;;;;;8.36;73.26;99357.47;4534854;31;20087;-76
2021/12/16 07:09:35;;;;;;;15.55;6.50;;;;;;;8.64;71.83;99357.94;4534605;31;20111;-76
2021/12/16 07:12:03;;;;;;;15.32;6.65;;;;;;;8.28;72.98;99366.94;4534876;31;20740;-76
2021/12/16 07:14:38;;;;;;;18.33;6.78;;;;;;;8.11;73.68;99368.91;4534154;31;20122;-76
2021/12/16 07:17:10;;;;;;;14.98;6.07;;;;;;;8.62;71.27;99369.13;4534533;31;20118;-76
2021/12/16 07:23:07;;;;;;;13.55;5.53;;;;;;;8.68;71.10;99379.31;4534801;31;20097;-77
2021/12/16 07:25:35;;;;;;;14.52;5.85;;;;;;;7.78;75.33;99380.41;4535267;31;20113;-76
2021/12/16 07:32:13;;;;;;;15.45;5.62;;;;;;;8.05;74.04;99384.37;4534922;31;20109;-76
2021/12/16 07:34:40;;;;;;;15.52;6.25;;;;;;;8.41;72.16;99385.72;4534727;31;20501;-76
2021/12/16 07:37:08;;;;;;;14.15;5.62;;;;;;;8.16;73.23;99376.53;4534415;31;20091;-76
2021/12/16 07:45:38;;;;;;;14.30;5.62;;;;;;;8.52;72.10;99388.12;4534395;31;20377;-77
2021/12/16 07:52:13;;;;;;;14.98;5.53;;;;;;;9.63;68.16;99390.72;4534310;31;20150;-76
2021/12/16 07:54:41;;;;;;;13.77;5.68;;;;;;;9.16;69.53;99387.22;4520079;31;20142;-76
2021/12/16 07:57:08;;;;;;;14.25;5.75;;;;;;;9.22;68.99;99397.41;4534579;31;20117;-76
2021/12/16 08:03:16;;;;;;;14.48;6.12;;;;;;;9.34;68.64;99399.78;4534178;31;20113;-76
2021/12/16 08:05:53;;;;;;;14.00;5.55;;;;;;;9.51;68.00;99404.66;4533880;31;20154;-76
2021/12/16 08:12:07;;;;;;;;;;;;;;;9.80;66.80;99405.00;4534602;31;20093;-76
2021/12/16 08:14:34;;;;;;;12.55;5.25;;;;;;;9.53;67.71;99398.59;4534366;31;19975;-76
2021/12/16 08:17:02;;;;;;;13.93;5.85;;;;;;;10.07;65.87;99389.88;4533972;31;20087;-76
2021/12/16 08:23:00;;;;;;;12.68;4.85;;;;;;;10.23;65.01;99398.22;4534175;31;20097;-76
2021/12/16 08:25:29;;;;;;;14.23;5.20;;;;;;;10.17;65.34;99395.72;4533932;31;20159;-75
2021/12/16 08:34:17;;;;;;;13.05;5.00;;;;;;;10.77;62.24;99406.53;4533663;31;20098;-76
2021/12/16 08:36:46;;;;;;;11.90;5.32;;;;;;;10.80;62.24;99413.38;4533963;31;20122;-76
2021/12/16 08:39:15;;;;;;;11.68;4.95;;;;;;;10.22;64.58;99417.16;4532318;31;20636;-76
2021/12/16 08:41:53;;;;;;;12.20;5.22;;;;;;;10.12;64.52;99416.47;4533635;31;20098;-76
2021/12/16 08:44:20;;;;;;;14.73;5.10;;;;;;;9.86;65.80;99420.34;4533728;31;20102;-75
2021/12/16 08:46:50;;;;;;;13.35;4.80;;;;;;;9.51;67.00;99412.38;4533482;31;20102;-76
2021/12/16 08:49:18;;;;;;;13.32;5.20;;;;;;;9.48;67.16;99410.72;4519255;31;20166;-75
2021/12/16 08:51:49;;;;;;;13.48;5.50;;;;;;;9.98;65.78;99424.44;4533768;31;20079;-76
2021/12/16 08:54:17;;;;;;;12.65;4.57;;;;;;;10.00;65.31;99425.28;4518992;31;20079;-76
2021/12/16 08:56:44;;;;;;;14.00;5.55;;;;;;;9.61;66.25;99429.41;4519227;31;20585;-75
2021/12/16 08:59:12;;;;;;;13.40;4.72;;;;;;;10.36;64.32;99435.78;4533459;31;20117;-76
2021/12/16 09:01:43;;;;;;;13.20;5.57;;;;;;;10.18;64.80;99429.22;4518783;31;20101;-76
2021/12/16 09:04:10;;;;;;;13.62;5.57;;;;;;;10.00;65.46;99427.00;4533410;31;20080;-77
2021/12/16 09:06:37;;;;;;;13.25;5.82;;;;;;;9.39;67.95;99423.75;4519164;31;20123;-77
2021/12/16 09:09:06;;;;;;;14.68;5.75;;;;;;;9.62;66.85;99427.66;4518786;31;20198;-76
2021/12/16 09:11:39;;;;;;;12.15;5.28;;;;;;;9.89;65.97;99429.78;4533382;31;20162;-76
2021/12/16 09:14:07;;;;;;;12.43;4.90;;;;;;;9.75;66.78;99419.69;4533376;31;20120;-75
2021/12/16 09:16:34;;;;;;;14.40;6.30;;;;;;;9.40;68.13;99416.88;4532882;31;20144;-76
2021/12/16 09:19:04;;;;;;;13.93;5.80;;;;;;;9.47;68.60;99421.06;4519939;31;20123;-76
2021/12/16 09:21:33;;;;;;;12.43;5.45;;;;;;;9.51;68.17;99422.69;4535877;31;20083;-76
2021/12/16 09:24:00;;;;;;;10.68;4.28;;;;;;;9.78;67.07;99423.94;4535256;31;20134;-76
2021/12/16 09:26:27;;;;;;;13.90;5.65;;;;;;;8.83;70.92;99404.00;4535729;31;20135;-76
2021/12/16 09:28:55;;;;;;;11.77;4.22;;;;;;;9.11;70.26;99413.00;4520924;31;20183;-77
2021/12/16 09:31:25;;;;;;;14.60;6.10;;;;;;;8.68;71.30;99403.34;4535665;31;20099;-76
2021/12/16 09:33:53;;;;;;;16.02;6.43;;;;;;;8.65;72.76;99408.53;4535390;31;20146;-77
2021/12/16 09:36:24;;;;;;;14.68;6.20;;;;;;;8.74;72.20;99393.84;4535252;31;20362;-77
2021/12/16 09:38:52;;;;;;;13.27;5.72;;;;;;;8.76;72.94;99397.25;4535559;31;20099;-77
2021/12/16 09:41:19;;;;;;;12.75;5.00;;;;;;;8.72;73.17;99393.00;4535677;31;20083;-77
2021/12/16 09:43:48;;;;;;;12.75;5.37;;;;;;;8.36;74.70;99387.47;4535096;31;20083;-76
2021/12/16 09:46:19;;;;;;;13.45;5.10;;;;;;;8.28;75.50;99384.94;4535621;31;20760;-77
2021/12/16 09:48:46;;;;;;;15.23;5.70;;;;;;;8.88;73.01;99381.63;4535507;31;20112;-77
2021/12/16 09:51:20;;;;;;;12.32;4.72;;;;;;;8.80;73.41;99376.56;4535196;31;20087;-76
2021/12/16 09:54:01;;;;;;;13.65;5.60;;;;;;;8.18;75.25;99373.06;4535411;31;20097;-76
2021/12/16 09:56:28;;;;;;;13.25;4.82;;;;;;;7.48;79.58;99373.84;4535503;31;20179;-77
2021/12/16 09:58:58;;;;;;;11.23;4.50;;;;;;;7.78;78.92;99370.13;4534988;31;20158;-76
2021/12/16 10:01:26;;;;;;;12.23;4.72;;;;;;;7.40;80.36;99370.47;4521324;31;20087;-75
2021/12/16 10:03:57;;;;;;;13.88;5.60;;;;;;;7.92;78.90;99372.53;4534996;31;20500;-76
2021/12/16 10:06:25;;;;;;;12.13;4.65;;;;;;;8.11;77.74;99366.31;4535567;31;20095;-75
2021/12/16 10:08:52;;;;;;;13.73;5.15;;;;;;;8.32;76.96;99367.78;4535434;31;20151;-75
2021/12/16 10:11:19;;;;;;;11.38;4.43;;;;;;;8.25;76.93;99367.00;4535113;31;20099;-76
2021/12/16 10:19:10;;;;;;;12.52;4.37;;;;;;;8.49;77.06;99355.56;4534974;31;20096;-78
2021/12/16 10:21:41;;;;;;;11.60;4.40;;;;;;;8.16;77.94;99358.53;4535342;31;20101;-81
2021/12/16 10:24:29;;;;;;;12.37;4.93;;;;;;;8.95;75.23;99355.78;4519609;31;20151;-82
2021/12/16 10:27:12;;;;;;;11.55;4.22;;;;;;;9.40;73.24;99344.75;4518822;31;20118;-82
2021/12/16 10:29:49;;;;;;;12.23;4.75;;;;;;;9.25;72.82;99348.41;4532728;31;20103;-82
2021/12/16 10:32:40;;;;;;;11.50;4.45;;;;;;;9.78;71.45;99360.37;4532995;31;20183;-82
2021/12/16 10:35:11;;;;;;;13.32;4.57;;;;;;;9.57;71.05;99363.34;4533310;31;20150;-81
2021/12/16 10:37:43;;;;;;;10.15;4.00;;;;;;;9.35;72.14;99352.53;4533707;31;20143;-81
2021/12/16 10:40:36;;;;;;;10.95;4.40;;;;;;;9.39;72.26;99346.47;4533611;31;20103;-81
2021/12/16 10:43:13;;;;;;;12.75;4.30;;;;;;;8.74;73.61;99338.09;4506037;31;20087;-80
2021/12/16 10:45:46;;;;;;;12.45;4.20;;;;;;;8.98;73.57;99342.84;4535269;31;20127;-79
2021/12/16 10:48:18;;;;;;;11.07;4.37;;;;;;;8.85;74.00;99348.22;4535145;31;20091;-78
2021/12/16 10:50:48;;;;;;;12.45;5.10;;;;;;;9.29;72.10;99344.94;4535302;31;20145;-80
2021/12/16 10:53:15;;;;;;;11.32;4.65;;;;;;;10.21;68.94;99343.19;4534942;31;20103;-75
2021/12/16 10:55:59;;;;;;;12.30;4.40;;;;;;;10.05;68.68;99343.50;4520635;31;20123;-75
2021/12/16 10:58:56;;;;;;;12.77;4.68;;;;;;;10.16;68.16;99345.87;4534864;31;20393;-75
2021/12/16 11:01:38;;;;;;;12.27;4.62;;;;;;;9.92;68.76;99359.25;4534871;31;20098;-77
2021/12/16 11:04:15;;;;;;;10.38;4.03;;;;;;;9.71;70.06;99350.19;4534985;31;20105;-77
2021/12/16 11:06:51;;;;;;;11.65;4.70;;;;;;;9.82;69.72;99349.12;4535308;31;20095;-76
2021/12/16 11:09:33;;;;;;;10.82;3.97;;;;;;;9.86;69.15;99344.75;4535173;31;20094;-77
2021/12/16 11:12:06;;;;;;;12.02;4.40;;;;;;;9.78;69.27;99339.75;4535275;31;20109;-77
2021/12/16 11:14:33;;;;;;;11.43;4.60;;;;;;;9.76;69.36;99338.91;4535046;31;20488;-75
2021/12/16 11:17:03;;;;;;;10.93;4.40;;;;;;;10.22;67.88;99324.31;4534948;31;20083;-76
2021/12/16 11:19:44;;;;;;;11.32;4.25;;;;;;;9.95;68.73;99315.37;4520667;31;20103;-75
2021/12/16 11:22:14;;;;;;;9.70;3.67;;;;;;;9.95;68.95;99318.78;4535504;31;20143;-75
2021/12/16 11:24:42;;;;;;;10.00;3.62;;;;;;;9.62;69.92;99320.28;4535538;31;20429;-76
2021/12/16 11:27:34;;;;;;;11.55;4.20;;;;;;;9.10;71.92;99316.06;4535310;31;20553;-76
2021/12/16 11:30:22;;;;;;;11.02;4.30;;;;;;;9.57;70.97;99315.22;4520444;31;20163;-77
2021/12/16 11:32:51;;;;;;;9.30;3.40;;;;;;;9.77;69.64;99317.41;4534537;31;20170;-77
2021/12/16 11:35:42;;;;;;;12.60;4.25;;;;;;;9.76;70.18;99299.41;4534164;31;20493;-77
2021/12/16 11:38:18;;;;;;;10.13;3.83;;;;;;;9.56;70.53;99315.25;4534796;31;20075;-78
2021/12/16 11:41:16;;;;;;;10.80;4.25;;;;;;;9.96;69.49;99309.31;4506725;31;20111;-77
2021/12/16 11:43:48;;;;;;;11.55;4.05;;;;;;;10.22;68.44;99309.69;4533774;31;20091;-77
2021/12/16 11:46:20;;;;;;;11.82;4.43;;;;;;;10.27;68.04;99317.31;4520712;31;20110;-78
2021/12/16 11:49:33;;;;;;;10.00;3.90;;;;;;;9.93;69.58;99311.97;4534525;31;20131;-78
2021/12/16 11:52:15;;;;;;;9.43;3.72;;;;;;;10.11;68.63;99324.50;4522700;31;20459;-78
2021/12/16 11:54:46;;;;;;;10.20;3.90;;;;;;;10.50;67.46;99320.22;4520407;31;20159;-78
2021/12/16 11:57:30;;;;;;;10.43;4.05;;;;;;;9.94;69.70;99322.25;4534443;31;20094;-77
2021/12/16 12:00:00;;;;;;;10.88;4.40;;;;;;;10.76;66.89;99324.81;4534561;31;20075;-76
2021/12/16 12:02:36;;;;;;;9.57;3.78;;;;;;;10.06;68.63;99321.16;4534721;31;20143;-76
2021/12/16 12:05:21;;;;;;;11.35;4.55;;;;;;;10.14;68.58;99319.28;4534189;31;20091;-76
2021/12/16 12:08:14;;;;;;;11.18;4.00;;;;;;;9.68;70.99;99320.19;4534473;31;20142;-78
2021/12/16 12:11:02;;;;;;;10.18;3.85;;;;;;;9.82;70.73;99325.06;4534386;31;20122;-78
2021/12/16 12:13:35;;;;;;;10.55;3.90;;;;;;;10.15;69.39;99324.38;4534591;31;20133;-77
2021/12/16 12:16:03;;;;;;;14.00;4.97;;;;;;;10.32;68.48;99315.50;4534172;31;20139;-77
2021/12/16 12:18:52;;;;;;;10.38;4.15;;;;;;;9.47;72.34;99316.28;4534038;31;20103;-78
2021/12/16 12:21:25;;;;;;;10.25;3.90;;;;;;;9.67;70.88;99309.88;4534203;31;20102;-79
2021/12/16 12:24:05;;;;;;;9.50;3.92;;;;;;;9.86;71.11;99298.34;4534167;31;20111;-77
2021/12/16 12:26:35;;;;;;;8.63;3.80;;;;;;;10.81;67.40;99306.63;4534339;31;20154;-77
2021/12/16 12:29:22;;;;;;;9.68;3.72;;;;;;;9.14;73.48;99316.84;4534151;31;20150;-77
2021/12/16 12:31:53;;;;;;;10.30;4.00;;;;;;;9.74;71.85;99306.31;4533841;31;20118;-76
2021/12/16 12:34:21;;;;;;;8.82;3.25;;;;;;;9.76;71.48;99296.81;4534090;31;20099;-78
2021/12/16 12:36:50;;;;;;;9.18;3.30;;;;;;;9.86;70.69;99296.62;4519740;31;20112;-78
2021/12/16 12:39:21;;;;;;;9.43;3.80;;;;;;;9.24;73.60;99306.34;4533641;31;20552;-76
2021/12/16 12:41:48;;;;;;;10.10;3.72;;;;;;;9.89;70.71;99300.00;4534103;31;20067;-77
2021/12/16 12:44:15;;;;;;;10.13;3.80;;;;;;;9.44;72.48;99297.44;4533891;31;20112;-76
2021/12/16 12:46:43;;;;;;;8.80;3.10;;;;;;;9.78;70.89;99306.25;4519363;31;20103;-76
2021/12/16 12:49:16;;;;;;;8.48;3.30;;;;;;;10.04;69.89;99290.25;4519623;31;20094;-76
2021/12/16 12:51:47;;;;;;;8.15;3.20;;;;;;;9.61;71.06;99303.12;4519582;31;20653;-76
2021/12/16 12:54:15;;;;;;;8.82;3.70;;;;;;;9.27;72.54;99303.75;4535655;31;20168;-76
2021/12/16 12:56:42;;;;;;;9.75;4.43;;;;;;;9.72;71.45;99314.09;4536034;31;20092;-75
2021/12/16 12:59:15;;;;;;;7.82;3.22;;;;;;;10.27;69.52;99301.84;4535510;31;20393;-75
2021/12/16 13:01:52;;;;;;;9.82;3.45;;;;;;;10.88;66.61;99301.28;4535520;31;20441;-76
2021/12/16 13:04:24;;;;;;;8.38;3.40;;;;;;;10.75;66.86;99294.72;4533944;31;20106;-75
2021/12/16 13:07:10;;;;;;;9.15;3.60;;;;;;;10.74;66.84;99298.19;4533374;31;20468;-77
2021/12/16 13:09:55;;;;;;;8.07;3.08;;;;;;;11.01;65.82;99301.84;4533258;31;20158;-75
2021/12/16 13:15:36;;;;;;;10.23;3.90;;;;;;;9.95;69.86;99292.16;4514204;31;20107;-76
2021/12/16 13:24:18;;;;;;;11.05;3.40;;;;;;;10.72;67.29;99294.78;4533139;31;20500;-77
2021/12/16 13:27:06;;;;;;;8.55;3.72;;;;;;;10.60;67.34;99295.06;4534693;31;20092;-77
2021/12/16 13:29:53;;;;;;;10.15;3.97;;;;;;;10.63;66.85;99290.72;4534212;31;20166;-77
2021/12/16 13:32:26;;;;;;;8.70;3.63;;;;;;;10.33;67.29;99289.66;4533003;31;20451;-77
2021/12/16 13:35:05;;;;;;;8.90;3.70;;;;;;;9.47;71.48;99294.81;4534034;31;20503;-77
2021/12/16 13:37:39;;;;;;;8.85;3.80;;;;;;;10.16;68.59;99294.28;4535180;31;20147;-78
2021/12/16 13:40:23;;;;;;;7.53;3.30;;;;;;;10.29;68.09;99287.16;4520888;31;20103;-77
2021/12/16 13:42:58;;;;;;;8.60;3.67;;;;;;;10.08;68.25;99285.84;4535018;31;20098;-78
2021/12/16 13:45:58;;;;;;;9.93;3.92;;;;;;;9.91;68.82;99295.69;4535269;31;20194;-77
2021/12/16 14:04:03;;;;;;;9.55;4.05;;;;;;;9.42;69.92;99325.81;4535135;31;20087;-78
2021/12/16 14:06:52;;;;;;;7.60;3.22;;;;;;;9.48;69.28;99330.84;4524159;31;20482;-80
2021/12/16 14:09:24;;;;;;;7.90;3.65;;;;;;;9.36;69.72;99325.94;4535018;31;20155;-78
2021/12/16 14:14:54;;;;;;;9.02;4.05;;;;;;;9.73;68.51;99328.66;4535436;31;20119;-78
2021/12/16 14:17:56;;;;;;;8.55;3.70;;;;;;;9.65;69.37;99327.94;4534710;31;20517;-78
2021/12/16 14:23:28;;;;;;;10.93;4.18;;;;;;;9.88;68.06;99344.72;4535444;31;20445;-80
2021/12/16 14:35:14;;;;;;;10.35;4.00;;;;;;;9.45;69.06;99330.87;4535278;31;20091;-79
2021/12/16 14:40:00;;;;;;;10.85;5.10;;;;;;;9.69;68.28;99316.72;4534822;31;20484;-79
2021/12/16 14:42:49;;;;;;;9.38;4.15;;;;;;;9.37;69.57;99330.19;4524026;31;20095;-79
2021/12/16 14:45:31;;;;;;;10.40;4.30;;;;;;;8.75;71.59;99328.63;4534729;31;20426;-80
2021/12/16 14:48:22;;;;;;;11.12;4.40;;;;;;;9.30;70.35;99332.91;4535094;31;20182;-81
2021/12/16 14:51:05;;;;;;;12.15;5.53;;;;;;;8.91;71.20;99323.22;4535248;31;20139;-81
2021/12/16 14:53:46;;;;;;;10.60;4.62;;;;;;;8.66;72.83;99335.63;4534915;31;20134;-80
2021/12/16 14:56:21;;;;;;;11.75;4.53;;;;;;;8.84;71.84;99326.78;4535106;31;20103;-81
2021/12/16 14:58:51;;;;;;;11.32;4.82;;;;;;;9.71;68.84;99338.16;4520486;31;20111;-81
2021/12/16 15:01:27;;;;;;;10.70;4.22;;;;;;;9.72;69.05;99333.84;4535031;31;20099;-81
2021/12/16 15:03:54;;;;;;;11.63;4.70;;;;;;;9.73;68.35;99346.72;4535214;31;20138;-79
2021/12/16 15:06:30;;;;;;;11.60;4.90;;;;;;;9.36;69.97;99336.22;4520474;31;20103;-79
2021/12/16 15:09:25;;;;;;;11.50;4.53;;;;;;;9.31;70.48;99343.16;4535157;31;20103;-79
2021/12/16 15:12:26;;;;;;;12.05;5.18;;;;;;;9.55;69.39;99336.72;4535137;31;20079;-79
2021/12/16 15:15:19;;;;;;;11.63;5.37;;;;;;;9.54;69.68;99347.91;4535465;31;20103;-79
2021/12/16 15:38:38;;;;;;;13.55;5.70;;;;;;;9.06;71.42;99340.16;4536643;31;20118;-79
2021/12/16 15:40:51;;;;;;;14.18;5.45;;;;;;;9.35;70.70;99337.06;4530377;31;20099;-83
2021/12/16 15:43:20;;;;;;;13.13;5.28;;;;;;;8.43;73.80;99331.66;4536581;31;20114;-81
2021/12/16 15:45:50;;;;;;;12.90;5.78;;;;;;;8.88;72.76;99328.41;4535296;31;20096;-81
2021/12/16 15:48:27;;;;;;;13.98;5.78;;;;;;;8.73;72.56;99331.25;4535860;31;20095;-84
2021/12/16 15:51:06;;;;;;;12.93;5.30;;;;;;;8.91;72.53;99333.50;4522600;31;20119;-81
2021/12/16 15:53:48;;;;;;;13.50;4.75;;;;;;;9.32;70.53;99342.28;4536540;31;20496;-82
2021/12/16 15:56:22;;;;;;;12.45;4.37;;;;;;;9.64;69.58;99348.59;4535288;31;20079;-81
2021/12/16 15:58:58;;;;;;;14.27;6.22;;;;;;;8.76;73.07;99338.06;4534688;31;20099;-81
2021/12/16 16:01:47;;;;;;;15.40;6.78;;;;;;;8.88;73.13;99350.72;4535355;31;20114;-81
2021/12/16 16:04:15;;;;;;;14.82;6.50;;;;;;;8.03;77.04;99366.41;4536051;31;20123;-81
2021/12/16 16:06:44;;;;;;;15.38;5.97;;;;;;;8.30;76.03;99360.09;4523826;31;20087;-80
2021/12/16 16:09:12;;;;;;;12.63;5.70;;;;;;;8.07;77.09;99356.94;4535699;31;20098;-80